Time;durP1;ratioP1;P1;durP2;ratioP2;P2;SDS_P1;SDS_P2;PMS_P1;PMS_P2;Temp;Humidity;BMP_temperature;BMP_pressure;BME280_temperature;BME280_humidity;BME280_pressure;Samples;Min_cycle;Max_cycle;Signal;HPM_P1;HPM_P2
2021/11/05 00:00:20;;;;;;;70.95;19.50;;;;;;;;;;4953879;29;20075;-72
2021/11/05 00:02:51;;;;;;;57.15;17.85;;;;;;;;;;4955146;29;20113;-72
2021/11/05 00:05:20;;;;;;;58.40;18.95;;;;;;;;;;4955261;29;20047;-73
2021/11/05 00:07:48;;;;;;;59.72;18.25;;;;;;;;;;4955206;29;20106;-72
2021/11/05 00:10:16;;;;;;;54.20;16.70;;;;;;;;;;4955299;29;20039;-72
2021/11/05 00:12:44;;;;;;;45.58;15.73;;;;;;;;;;4954679;29;20069;-72
2021/11/05 00:15:13;;;;;;;40.67;15.80;;;;;;;;;;4955091;29;20039;-72
2021/11/05 00:17:41;;;;;;;42.25;14.27;;;;;;;;;;4954171;29;20564;-74
2021/11/05 00:20:10;;;;;;;37.05;15.23;;;;;;;;;;4955000;29;20053;-71
2021/11/05 00:22:48;;;;;;;38.67;15.80;;;;;;;;;;4954968;29;20069;-74
2021/11/05 00:25:15;;;;;;;37.55;14.13;;;;;;;;;;4954620;28;20102;-74
2021/11/05 00:27:44;;;;;;;34.10;14.80;;;;;;;;;;4954618;29;20043;-71
2021/11/05 00:30:12;;;;;;;33.83;13.48;;;;;;;;;;4955014;29;20050;-74
2021/11/05 00:32:43;;;;;;;40.20;13.88;;;;;;;;;;4954346;29;20059;-71
2021/11/05 00:35:12;;;;;;;48.63;15.18;;;;;;;;;;4955111;29;20035;-74
2021/11/05 00:37:40;;;;;;;49.03;16.13;;;;;;;;;;4955089;29;20122;-73
2021/11/05 00:40:12;;;;;;;54.67;16.73;;;;;;;;;;4955001;29;20130;-73
2021/11/05 00:42:40;;;;;;;49.13;15.40;;;;;;;;;;4954394;29;20059;-73
2021/11/05 00:45:09;;;;;;;58.60;18.25;;;;;;;;;;4954961;29;20055;-73
2021/11/05 00:47:36;;;;;;;47.58;17.25;;;;;;;;;;4955037;29;20051;-71
2021/11/05 00:50:04;;;;;;;43.72;15.43;;;;;;;;;;4954072;29;20050;-70
2021/11/05 00:52:32;;;;;;;56.60;16.05;;;;;;;;;;4955186;29;20050;-73
2021/11/05 00:54:59;;;;;;;44.53;14.65;;;;;;;;;;4955232;29;20051;-74
2021/11/05 00:57:26;;;;;;;43.35;14.27;;;;;;;;;;4954345;29;20049;-73
2021/11/05 00:59:54;;;;;;;43.90;15.45;;;;;;;;;;4955108;29;20059;-73
2021/11/05 01:02:23;;;;;;;41.08;15.00;;;;;;;;;;4954650;29;20051;-71
2021/11/05 01:04:50;;;;;;;41.90;14.40;;;;;;;;;;4954649;29;20053;-74
2021/11/05 01:07:18;;;;;;;47.72;13.73;;;;;;;;;;4954771;29;20219;-72
2021/11/05 01:09:45;;;;;;;48.63;14.43;;;;;;;;;;4954538;29;20053;-73
2021/11/05 01:12:13;;;;;;;45.60;13.60;;;;;;;;;;4954445;29;20050;-73
2021/11/05 01:14:41;;;;;;;40.25;13.90;;;;;;;;;;4955002;29;20039;-71
2021/11/05 01:17:09;;;;;;;50.60;13.63;;;;;;;;;;4954828;29;20150;-73
2021/11/05 01:19:37;;;;;;;49.95;13.68;;;;;;;;;;4954404;29;20536;-71
2021/11/05 01:22:04;;;;;;;38.13;12.85;;;;;;;;;;4954422;29;20078;-73
2021/11/05 01:24:32;;;;;;;42.58;13.85;;;;;;;;;;4954421;29;20142;-73
2021/11/05 01:26:59;;;;;;;35.55;12.30;;;;;;;;;;4954339;29;20055;-74
2021/11/05 01:29:27;;;;;;;28.02;11.25;;;;;;;;;;4954954;29;20047;-71
2021/11/05 01:31:54;;;;;;;38.63;12.55;;;;;;;;;;4954335;29;20520;-73
2021/11/05 01:34:22;;;;;;;34.22;12.65;;;;;;;;;;4953613;29;20071;-73
2021/11/05 01:36:51;;;;;;;36.28;12.50;;;;;;;;;;4956906;28;20063;-74
2021/11/05 01:39:19;;;;;;;43.13;13.05;;;;;;;;;;4957813;29;20089;-73
2021/11/05 01:41:47;;;;;;;42.20;12.77;;;;;;;;;;4957905;29;20063;-71
2021/11/05 01:44:15;;;;;;;48.72;15.45;;;;;;;;;;4957815;29;20512;-73
2021/11/05 01:46:43;;;;;;;41.90;12.65;;;;;;;;;;4957787;29;20043;-70
2021/11/05 01:49:11;;;;;;;35.97;11.77;;;;;;;;;;4958019;29;20051;-73
2021/11/05 01:51:40;;;;;;;32.10;11.13;;;;;;;;;;4958050;29;20487;-70
2021/11/05 01:54:10;;;;;;;45.15;13.13;;;;;;;;;;4966418;28;20066;-71
2021/11/05 01:56:39;;;;;;;34.58;13.07;;;;;;;;;;4941254;29;20039;-73
2021/11/05 01:59:29;;;;;;;33.50;11.88;;;;;;;;;;4957532;29;20143;-71
2021/11/05 02:01:58;;;;;;;37.22;11.98;;;;;;;;;;4957401;29;20047;-71
2021/11/05 02:04:26;;;;;;;40.13;13.07;;;;;;;;;;4957681;29;20047;-70
2021/11/05 02:06:55;;;;;;;46.65;12.38;;;;;;;;;;4957190;29;20051;-70
2021/11/05 02:09:24;;;;;;;41.78;11.65;;;;;;;;;;4955954;29;20093;-73
2021/11/05 02:11:53;;;;;;;38.38;12.40;;;;;;;;;;4957799;29;20035;-73
2021/11/05 02:14:22;;;;;;;59.17;13.77;;;;;;;;;;4957091;29;20126;-73
2021/11/05 02:16:52;;;;;;;43.58;12.32;;;;;;;;;;4958043;29;20051;-71
2021/11/05 02:19:22;;;;;;;38.47;11.35;;;;;;;;;;4955934;29;20126;-73
2021/11/05 02:21:52;;;;;;;50.20;12.07;;;;;;;;;;4963644;28;20059;-74
2021/11/05 02:24:20;;;;;;;52.47;12.55;;;;;;;;;;4957119;29;20417;-73
2021/11/05 02:26:50;;;;;;;56.78;13.65;;;;;;;;;;4972056;28;20047;-74
2021/11/05 02:29:18;;;;;;;48.63;12.20;;;;;;;;;;4957344;28;20074;-70
2021/11/05 02:31:45;;;;;;;51.20;12.02;;;;;;;;;;4957468;29;20047;-71
2021/11/05 02:34:13;;;;;;;48.15;12.65;;;;;;;;;;4956924;29;20039;-73
2021/11/05 02:36:41;;;;;;;48.00;12.85;;;;;;;;;;4957448;29;20046;-73
2021/11/05 02:39:09;;;;;;;58.03;14.30;;;;;;;;;;4956450;29;20039;-73
2021/11/05 02:41:42;;;;;;;62.17;13.27;;;;;;;;;;4956810;29;20050;-73
2021/11/05 02:44:10;;;;;;;68.97;13.55;;;;;;;;;;4959218;28;20050;-73
2021/11/05 02:46:39;;;;;;;39.63;11.60;;;;;;;;;;4956662;29;20074;-73
2021/11/05 02:49:07;;;;;;;48.97;13.00;;;;;;;;;;4956587;28;20130;-70
2021/11/05 02:51:35;;;;;;;48.38;11.73;;;;;;;;;;4971139;28;20086;-73
2021/11/05 02:54:03;;;;;;;43.83;12.25;;;;;;;;;;4956525;28;20122;-70
2021/11/05 02:56:31;;;;;;;37.75;10.60;;;;;;;;;;4957151;28;20055;-70
2021/11/05 02:58:58;;;;;;;32.40;10.98;;;;;;;;;;4956494;29;20043;-71
2021/11/05 03:01:28;;;;;;;36.72;11.63;;;;;;;;;;4955246;29;20071;-73
2021/11/05 03:04:00;;;;;;;41.45;11.55;;;;;;;;;;4971435;28;20122;-71
2021/11/05 03:06:33;;;;;;;43.95;12.88;;;;;;;;;;4956347;29;20082;-73
2021/11/05 03:09:07;;;;;;;38.35;12.10;;;;;;;;;;4955990;28;20131;-71
2021/11/05 03:11:35;;;;;;;38.13;11.05;;;;;;;;;;4956570;28;20074;-73
2021/11/05 03:14:02;;;;;;;37.17;11.30;;;;;;;;;;4956611;29;20054;-73
2021/11/05 03:16:30;;;;;;;52.45;12.05;;;;;;;;;;4956578;28;20042;-73
2021/11/05 03:18:57;;;;;;;52.03;12.32;;;;;;;;;;4956155;28;20042;-73
2021/11/05 03:21:25;;;;;;;47.05;12.32;;;;;;;;;;4955417;28;20047;-71
2021/11/05 03:23:53;;;;;;;54.13;12.18;;;;;;;;;;4956114;29;20057;-74
2021/11/05 03:26:21;;;;;;;66.97;13.30;;;;;;;;;;4956321;29;20123;-73
2021/11/05 03:28:48;;;;;;;66.95;13.38;;;;;;;;;;4955868;29;20051;-73
2021/11/05 03:31:16;;;;;;;63.20;13.32;;;;;;;;;;4956311;29;20150;-73
2021/11/05 03:33:47;;;;;;;48.60;12.95;;;;;;;;;;4956254;29;20049;-73
2021/11/05 03:36:14;;;;;;;51.67;12.52;;;;;;;;;;4955526;29;20488;-73
2021/11/05 03:38:42;;;;;;;52.53;12.82;;;;;;;;;;4954500;29;20049;-73
2021/11/05 03:41:11;;;;;;;40.42;12.07;;;;;;;;;;4955670;29;20048;-73
2021/11/05 03:43:39;;;;;;;36.30;11.25;;;;;;;;;;4955885;29;20059;-70
2021/11/05 03:46:06;;;;;;;40.00;11.45;;;;;;;;;;4954311;29;20500;-73
2021/11/05 03:48:36;;;;;;;43.92;12.93;;;;;;;;;;4955654;29;20040;-73
2021/11/05 03:51:05;;;;;;;56.65;13.82;;;;;;;;;;4955404;29;20377;-73
2021/11/05 03:53:33;;;;;;;36.55;11.80;;;;;;;;;;4955849;29;20567;-71
2021/11/05 03:56:00;;;;;;;33.33;11.60;;;;;;;;;;4956040;29;20039;-74
2021/11/05 03:58:28;;;;;;;38.08;11.38;;;;;;;;;;4955081;28;20071;-71
2021/11/05 04:00:56;;;;;;;34.25;10.98;;;;;;;;;;4954636;29;20094;-74
2021/11/05 04:03:28;;;;;;;36.30;11.55;;;;;;;;;;4955183;29;20039;-70
2021/11/05 04:05:55;;;;;;;31.30;10.55;;;;;;;;;;4954912;29;20617;-71
2021/11/05 04:08:22;;;;;;;33.17;10.57;;;;;;;;;;4955158;29;20049;-74
2021/11/05 04:10:50;;;;;;;48.88;12.82;;;;;;;;;;4953826;29;20044;-70
2021/11/05 04:13:18;;;;;;;42.90;13.15;;;;;;;;;;4955310;29;20053;-73
2021/11/05 04:15:45;;;;;;;46.20;13.23;;;;;;;;;;4955802;29;20125;-71
2021/11/05 04:18:14;;;;;;;51.33;13.05;;;;;;;;;;4955004;29;20493;-75
2021/11/05 04:20:41;;;;;;;58.90;13.48;;;;;;;;;;4954835;29;20043;-73
2021/11/05 04:23:09;;;;;;;46.03;12.95;;;;;;;;;;4955276;29;20105;-73
2021/11/05 04:25:38;;;;;;;57.40;12.88;;;;;;;;;;4955235;29;20527;-73
2021/11/05 04:28:08;;;;;;;41.00;11.70;;;;;;;;;;4955139;29;20127;-74
2021/11/05 04:30:36;;;;;;;49.00;11.90;;;;;;;;;;4955281;29;20047;-71
2021/11/05 04:33:04;;;;;;;44.47;11.75;;;;;;;;;;4954586;29;20465;-71
2021/11/05 04:35:31;;;;;;;45.03;12.70;;;;;;;;;;4954630;29;20049;-71
2021/11/05 04:37:59;;;;;;;38.63;11.18;;;;;;;;;;4954645;29;20039;-71
2021/11/05 04:40:26;;;;;;;42.60;11.80;;;;;;;;;;4954827;29;20130;-70
2021/11/05 04:42:54;;;;;;;49.33;15.18;;;;;;;;;;4954734;29;20043;-70
2021/11/05 04:45:22;;;;;;;46.83;14.70;;;;;;;;;;4954963;29;20055;-73
2021/11/05 04:47:49;;;;;;;43.67;14.45;;;;;;;;;;4953051;29;20143;-70
2021/11/05 04:50:17;;;;;;;53.35;16.30;;;;;;;;;;4955098;29;20389;-73
2021/11/05 04:52:48;;;;;;;51.85;15.20;;;;;;;;;;4953812;29;20504;-73
2021/11/05 04:55:17;;;;;;;48.88;14.40;;;;;;;;;;4953938;29;20043;-70
2021/11/05 04:57:49;;;;;;;64.32;14.48;;;;;;;;;;4953447;29;20122;-70
2021/11/05 05:00:18;;;;;;;52.95;16.20;;;;;;;;;;4954581;29;20047;-70
2021/11/05 05:02:48;;;;;;;48.25;14.43;;;;;;;;;;4954248;29;20058;-70
2021/11/05 05:05:16;;;;;;;48.45;12.63;;;;;;;;;;4954805;29;20035;-70
2021/11/05 05:07:45;;;;;;;60.17;12.43;;;;;;;;;;4954807;29;20050;-73
2021/11/05 05:10:13;;;;;;;57.05;12.23;;;;;;;;;;4954557;28;20122;-73
2021/11/05 05:12:41;;;;;;;49.40;12.63;;;;;;;;;;4958919;29;20053;-71
2021/11/05 05:15:12;;;;;;;46.85;13.48;;;;;;;;;;4958789;29;20043;-71
2021/11/05 05:17:40;;;;;;;42.35;11.90;;;;;;;;;;4958049;29;20207;-73
2021/11/05 05:20:09;;;;;;;47.03;11.95;;;;;;;;;;4958250;29;20039;-73
2021/11/05 05:22:39;;;;;;;49.28;12.27;;;;;;;;;;4957985;29;20065;-73
2021/11/05 05:25:08;;;;;;;36.88;11.93;;;;;;;;;;4958286;29;20394;-73
2021/11/05 05:27:35;;;;;;;36.42;10.95;;;;;;;;;;4958206;29;20057;-73
2021/11/05 05:30:04;;;;;;;32.67;11.02;;;;;;;;;;4958352;29;20401;-70
2021/11/05 05:32:33;;;;;;;29.65;11.10;;;;;;;;;;4957738;29;20048;-70
2021/11/05 05:35:00;;;;;;;39.92;13.30;;;;;;;;;;4958161;29;20050;-74
2021/11/05 05:37:28;;;;;;;46.58;13.02;;;;;;;;;;4956865;29;20143;-71
2021/11/05 05:39:56;;;;;;;54.88;12.25;;;;;;;;;;4958027;29;20035;-71
2021/11/05 05:42:24;;;;;;;48.83;12.45;;;;;;;;;;4957899;29;20047;-74
2021/11/05 05:44:52;;;;;;;43.17;11.88;;;;;;;;;;4957918;29;20146;-73
2021/11/05 05:47:19;;;;;;;50.33;13.82;;;;;;;;;;4957467;29;20095;-71
2021/11/05 05:49:49;;;;;;;46.75;12.73;;;;;;;;;;4957959;29;20481;-70
2021/11/05 05:52:21;;;;;;;41.60;12.23;;;;;;;;;;4958110;29;20493;-71
2021/11/05 05:54:49;;;;;;;45.05;12.85;;;;;;;;;;4957863;29;20053;-73
2021/11/05 05:57:16;;;;;;;55.05;13.68;;;;;;;;;;4957510;29;20049;-69
2021/11/05 05:59:44;;;;;;;40.38;12.90;;;;;;;;;;4956644;29;20508;-73
2021/11/05 06:02:12;;;;;;;42.50;14.00;;;;;;;;;;4957046;29;20142;-73
2021/11/05 06:04:40;;;;;;;41.20;13.38;;;;;;;;;;4957380;29;20053;-73
2021/11/05 06:07:08;;;;;;;49.28;13.88;;;;;;;;;;4957355;29;20485;-72
2021/11/05 06:09:35;;;;;;;40.00;12.60;;;;;;;;;;4957560;29;20123;-71
2021/11/05 06:12:03;;;;;;;37.35;12.77;;;;;;;;;;4957507;29;20122;-73
2021/11/05 06:14:30;;;;;;;45.00;12.82;;;;;;;;;;4957068;29;20473;-69
2021/11/05 06:16:59;;;;;;;49.65;12.80;;;;;;;;;;4957308;29;20039;-69
2021/11/05 06:19:27;;;;;;;47.03;14.93;;;;;;;;;;4957392;29;20541;-73
2021/11/05 06:21:55;;;;;;;40.38;14.48;;;;;;;;;;4956664;28;20501;-69
2021/11/05 06:24:23;;;;;;;50.05;11.38;;;;;;;;;;4956825;29;20050;-73
2021/11/05 06:26:50;;;;;;;37.58;10.55;;;;;;;;;;4957109;29;20127;-71
2021/11/05 06:29:18;;;;;;;38.10;10.57;;;;;;;;;;4975350;28;20047;-71
2021/11/05 06:31:45;;;;;;;28.58;10.23;;;;;;;;;;4994640;28;20392;-71
2021/11/05 06:34:14;;;;;;;38.20;10.15;;;;;;;;;;4994237;28;20038;-75
2021/11/05 06:36:42;;;;;;;38.00;10.43;;;;;;;;;;4993916;28;20042;-71
2021/11/05 06:39:10;;;;;;;43.00;12.45;;;;;;;;;;4995394;28;20065;-74
2021/11/05 06:41:37;;;;;;;44.85;10.75;;;;;;;;;;4995494;28;20448;-69
2021/11/05 06:44:05;;;;;;;44.72;10.35;;;;;;;;;;4994891;28;20042;-74
2021/11/05 06:46:33;;;;;;;42.05;10.20;;;;;;;;;;4995652;28;20042;-74
2021/11/05 06:49:00;;;;;;;42.50;10.75;;;;;;;;;;4994797;28;20050;-74
2021/11/05 06:51:28;;;;;;;36.20;8.57;;;;;;;;;;4993716;28;20053;-75
2021/11/05 06:53:56;;;;;;;37.05;8.82;;;;;;;;;;4995435;28;20411;-75
2021/11/05 06:56:23;;;;;;;31.25;8.35;;;;;;;;;;4994989;28;20052;-71
2021/11/05 06:58:51;;;;;;;40.35;9.38;;;;;;;;;;4994719;28;20039;-72
2021/11/05 07:01:19;;;;;;;33.22;8.48;;;;;;;;;;4994115;28;20046;-75
2021/11/05 07:03:47;;;;;;;36.00;9.18;;;;;;;;;;4994732;28;20528;-75
2021/11/05 07:06:15;;;;;;;32.85;8.73;;;;;;;;;;4994642;28;20088;-71
2021/11/05 07:08:42;;;;;;;34.97;8.80;;;;;;;;;;4994811;28;20039;-75
2021/11/05 07:11:09;;;;;;;45.13;10.30;;;;;;;;;;4994781;28;20069;-75
2021/11/05 07:13:37;;;;;;;37.55;9.82;;;;;;;;;;4994338;28;20042;-72
2021/11/05 07:16:05;;;;;;;40.22;9.80;;;;;;;;;;4994674;28;20081;-72
2021/11/05 07:18:36;;;;;;;41.17;9.90;;;;;;;;;;4994675;28;20508;-76
2021/11/05 07:21:04;;;;;;;52.25;11.80;;;;;;;;;;4994371;28;20465;-71
2021/11/05 07:23:32;;;;;;;41.30;9.88;;;;;;;;;;4994210;28;20477;-72
2021/11/05 07:26:03;;;;;;;51.95;10.20;;;;;;;;;;4994481;28;20050;-76
2021/11/05 07:28:30;;;;;;;42.95;10.77;;;;;;;;;;4992636;28;20120;-75
2021/11/05 07:30:58;;;;;;;44.28;10.68;;;;;;;;;;4994355;28;20057;-71
2021/11/05 07:33:27;;;;;;;47.63;10.98;;;;;;;;;;4960872;28;20105;-74
2021/11/05 07:35:54;;;;;;;44.83;10.68;;;;;;;;;;4994234;28;20487;-75
2021/11/05 07:38:22;;;;;;;36.17;9.63;;;;;;;;;;4993919;28;20050;-74
2021/11/05 07:40:50;;;;;;;41.67;10.10;;;;;;;;;;4994193;28;20073;-76
2021/11/05 07:43:19;;;;;;;36.03;8.82;;;;;;;;;;4993525;28;20053;-71
2021/11/05 07:45:47;;;;;;;50.20;10.05;;;;;;;;;;4993876;28;20054;-71
2021/11/05 07:48:14;;;;;;;42.95;10.00;;;;;;;;;;4993845;28;20503;-72
2021/11/05 07:50:42;;;;;;;57.53;13.35;;;;;;;;;;4993908;28;20042;-72
2021/11/05 07:53:11;;;;;;;47.95;10.52;;;;;;;;;;4993631;28;20054;-71
2021/11/05 07:55:39;;;;;;;44.13;9.18;;;;;;;;;;4994078;28;20050;-76
2021/11/05 07:58:07;;;;;;;36.30;9.25;;;;;;;;;;4993519;28;20038;-76
2021/11/05 08:00:35;;;;;;;37.90;8.73;;;;;;;;;;4993871;28;20150;-73
2021/11/05 08:03:08;;;;;;;45.15;9.23;;;;;;;;;;4993790;28;20047;-73
2021/11/05 08:05:35;;;;;;;43.90;9.00;;;;;;;;;;4993583;28;20047;-75
2021/11/05 08:08:03;;;;;;;43.97;7.60;;;;;;;;;;4976430;28;20046;-75
2021/11/05 08:10:31;;;;;;;36.85;7.40;;;;;;;;;;4976303;28;20042;-71
2021/11/05 08:12:58;;;;;;;40.92;8.45;;;;;;;;;;4993220;28;20046;-71
2021/11/05 08:15:26;;;;;;;44.88;9.05;;;;;;;;;;4993692;28;20495;-75
2021/11/05 08:17:57;;;;;;;44.42;10.30;;;;;;;;;;4993771;28;20451;-75
2021/11/05 08:20:25;;;;;;;44.53;10.38;;;;;;;;;;5000034;23;20048;-75
2021/11/05 08:22:52;;;;;;;46.30;10.60;;;;;;;;;;4937324;29;20420;-75
2021/11/05 08:25:20;;;;;;;48.08;11.73;;;;;;;;;;4954462;29;20047;-74
2021/11/05 08:27:49;;;;;;;51.17;11.02;;;;;;;;;;4954562;29;20043;-76
2021/11/05 08:30:23;;;;;;;41.20;10.55;;;;;;;;;;4937500;29;20504;-71
2021/11/05 08:32:52;;;;;;;32.95;10.23;;;;;;;;;;4954661;28;20094;-75
2021/11/05 08:35:22;;;;;;;44.88;10.73;;;;;;;;;;4937446;29;20291;-75
2021/11/05 08:37:52;;;;;;;44.67;11.15;;;;;;;;;;4938107;29;20051;-76
2021/11/05 08:40:19;;;;;;;46.38;11.13;;;;;;;;;;4954141;29;20039;-72
2021/11/05 08:42:47;;;;;;;51.25;11.63;;;;;;;;;;4954769;29;20098;-72
2021/11/05 08:45:15;;;;;;;42.08;10.23;;;;;;;;;;4954011;28;20523;-75
2021/11/05 08:47:43;;;;;;;36.03;10.20;;;;;;;;;;4954302;29;20058;-75
2021/11/05 08:50:16;;;;;;;43.97;10.38;;;;;;;;;;4954585;29;20416;-75
2021/11/05 08:52:44;;;;;;;41.28;10.50;;;;;;;;;;4954431;29;20130;-75
2021/11/05 08:55:12;;;;;;;38.42;9.80;;;;;;;;;;4953828;29;20043;-75
2021/11/05 08:57:39;;;;;;;53.45;10.07;;;;;;;;;;4954359;29;20047;-71
2021/11/05 09:00:12;;;;;;;42.47;9.45;;;;;;;;;;4954215;29;20043;-71
2021/11/05 09:02:43;;;;;;;39.58;8.38;;;;;;;;;;4954052;29;20067;-75
2021/11/05 09:05:15;;;;;;;35.63;7.90;;;;;;;;;;4954278;29;20126;-75
2021/11/05 09:07:43;;;;;;;31.42;7.80;;;;;;;;;;4953996;29;20043;-75
2021/11/05 09:10:11;;;;;;;42.25;8.65;;;;;;;;;;4954192;29;20373;-71
2021/11/05 09:12:40;;;;;;;38.03;8.27;;;;;;;;;;4954263;29;20046;-75
2021/11/05 09:15:09;;;;;;;40.92;7.72;;;;;;;;;;4953957;29;20049;-75
2021/11/05 09:17:38;;;;;;;48.92;8.63;;;;;;;;;;4954421;29;20050;-72
2021/11/05 09:20:07;;;;;;;44.97;8.68;;;;;;;;;;4953982;29;20066;-75
2021/11/05 09:22:39;;;;;;;38.13;9.63;;;;;;;;;;4953797;29;20508;-76
2021/11/05 09:25:09;;;;;;;41.38;8.00;;;;;;;;;;4953665;29;20428;-75
2021/11/05 09:27:37;;;;;;;40.00;9.20;;;;;;;;;;4954211;29;20047;-75
2021/11/05 09:30:05;;;;;;;39.08;9.07;;;;;;;;;;4954074;29;20066;-70
2021/11/05 09:32:33;;;;;;;35.63;7.88;;;;;;;;;;4954151;29;20035;-72
2021/11/05 09:35:01;;;;;;;40.80;7.70;;;;;;;;;;4953726;28;20050;-72
2021/11/05 09:37:29;;;;;;;42.05;8.07;;;;;;;;;;4953982;29;20039;-75
2021/11/05 09:39:57;;;;;;;44.78;8.60;;;;;;;;;;4953858;29;20043;-75
2021/11/05 09:42:24;;;;;;;32.35;8.07;;;;;;;;;;4953873;29;20047;-75
2021/11/05 09:44:54;;;;;;;28.85;8.18;;;;;;;;;;4953994;29;20493;-74
2021/11/05 09:47:22;;;;;;;35.95;8.07;;;;;;;;;;4936610;29;20085;-75
2021/11/05 09:49:50;;;;;;;36.85;9.40;;;;;;;;;;4953391;29;20112;-74
2021/11/05 09:52:19;;;;;;;38.72;9.00;;;;;;;;;;4937105;29;20493;-74
2021/11/05 09:54:49;;;;;;;43.97;9.25;;;;;;;;;;4953566;29;20505;-75
2021/11/05 09:57:20;;;;;;;33.42;8.10;;;;;;;;;;4953930;28;20043;-72
2021/11/05 09:59:50;;;;;;;29.05;8.88;;;;;;;;;;4957330;29;20050;-71
2021/11/05 10:02:18;;;;;;;34.10;7.97;;;;;;;;;;4957370;29;20044;-75
2021/11/05 10:04:47;;;;;;;26.85;7.18;;;;;;;;;;4957145;29;20136;-71
2021/11/05 10:07:15;;;;;;;33.17;7.85;;;;;;;;;;4956623;29;20436;-74
2021/11/05 10:09:44;;;;;;;39.17;9.38;;;;;;;;;;4957206;29;20047;-75
2021/11/05 10:12:13;;;;;;;37.35;8.20;;;;;;;;;;4957210;29;20078;-72
2021/11/05 10:14:42;;;;;;;40.55;8.80;;;;;;;;;;4957052;29;20035;-72
2021/11/05 10:17:11;;;;;;;37.20;8.23;;;;;;;;;;4939622;29;20043;-72
2021/11/05 10:19:49;;;;;;;32.05;9.30;;;;;;;;;;4956704;29;20043;-72
2021/11/05 10:22:43;;;;;;;34.33;8.88;;;;;;;;;;4956441;29;20512;-71
2021/11/05 10:25:30;;;;;;;36.33;10.02;;;;;;;;;;4956842;29;20039;-75
2021/11/05 10:28:04;;;;;;;39.63;10.20;;;;;;;;;;4940214;29;20126;-75
2021/11/05 10:30:33;;;;;;;40.80;9.10;;;;;;;;;;4956793;29;20041;-70
2021/11/05 10:33:03;;;;;;;43.83;10.38;;;;;;;;;;4956420;28;20043;-72
2021/11/05 10:35:33;;;;;;;44.33;9.88;;;;;;;;;;4939520;29;20491;-71
2021/11/05 10:38:03;;;;;;;40.92;8.98;;;;;;;;;;4956617;29;20035;-70
2021/11/05 10:40:43;;;;;;;36.30;8.52;;;;;;;;;;4956472;29;20039;-75
2021/11/05 10:43:12;;;;;;;47.63;9.68;;;;;;;;;;4956577;29;20043;-75
2021/11/05 10:45:41;;;;;;;47.17;9.75;;;;;;;;;;4956018;29;20043;-70
2021/11/05 10:48:10;;;;;;;42.28;9.57;;;;;;;;;;4939079;29;20054;-74
2021/11/05 10:50:58;;;;;;;39.28;8.23;;;;;;;;;;4956056;29;20058;-72
2021/11/05 10:53:32;;;;;;;43.22;9.05;;;;;;;;;;4956513;29;20132;-75
2021/11/05 10:56:00;;;;;;;34.13;8.55;;;;;;;;;;4923706;29;20130;-71
2021/11/05 10:58:30;;;;;;;40.47;8.95;;;;;;;;;;4956138;29;20181;-72
2021/11/05 11:00:58;;;;;;;38.28;8.85;;;;;;;;;;4956347;29;20090;-75
2021/11/05 11:03:33;;;;;;;33.53;8.05;;;;;;;;;;4955963;29;20047;-70
2021/11/05 11:06:05;;;;;;;40.40;9.90;;;;;;;;;;4955514;29;20384;-75
2021/11/05 11:08:36;;;;;;;37.50;9.43;;;;;;;;;;4939074;29;20047;-72
2021/11/05 11:11:18;;;;;;;35.80;9.32;;;;;;;;;;4938500;29;20126;-71
2021/11/05 11:13:47;;;;;;;36.05;8.63;;;;;;;;;;4955812;29;20043;-72
2021/11/05 11:16:19;;;;;;;42.60;9.43;;;;;;;;;;4955794;29;20114;-75
2021/11/05 11:18:49;;;;;;;41.10;9.95;;;;;;;;;;4955765;29;20039;-75
2021/11/05 11:21:18;;;;;;;40.95;9.00;;;;;;;;;;4938279;29;20051;-72
2021/11/05 11:23:46;;;;;;;39.63;9.73;;;;;;;;;;4955600;29;20051;-70
2021/11/05 11:26:13;;;;;;;39.13;10.05;;;;;;;;;;4955708;29;20039;-74
2021/11/05 11:28:42;;;;;;;38.47;8.55;;;;;;;;;;4955680;29;20482;-75
2021/11/05 11:31:12;;;;;;;41.35;9.43;;;;;;;;;;4955736;29;20497;-75
2021/11/05 11:33:41;;;;;;;40.90;10.32;;;;;;;;;;4955344;28;20047;-70
2021/11/05 11:36:10;;;;;;;36.53;8.93;;;;;;;;;;4937890;29;20412;-71
2021/11/05 11:38:44;;;;;;;35.15;8.73;;;;;;;;;;4955635;29;20039;-75
2021/11/05 11:41:12;;;;;;;41.08;9.68;;;;;;;;;;4954967;29;20043;-71
2021/11/05 11:43:40;;;;;;;40.00;9.48;;;;;;;;;;4937686;29;20058;-75
2021/11/05 11:46:07;;;;;;;34.50;9.25;;;;;;;;;;4954994;29;20047;-72
2021/11/05 11:48:43;;;;;;;40.05;9.80;;;;;;;;;;4954424;29;20047;-75
2021/11/05 11:51:16;;;;;;;43.13;9.20;;;;;;;;;;4954870;29;20047;-75
2021/11/05 11:53:45;;;;;;;44.25;9.75;;;;;;;;;;4955086;29;20046;-71
2021/11/05 11:56:23;;;;;;;40.42;9.73;;;;;;;;;;4954842;29;20108;-75
2021/11/05 11:59:02;;;;;;;38.80;9.40;;;;;;;;;;4955062;29;20138;-71
2021/11/05 12:01:30;;;;;;;42.30;10.13;;;;;;;;;;4954665;29;20047;-72
2021/11/05 12:03:59;;;;;;;39.30;9.85;;;;;;;;;;4954643;29;20047;-75
2021/11/05 12:06:48;;;;;;;35.42;9.15;;;;;;;;;;4954846;29;20511;-71
2021/11/05 12:09:26;;;;;;;32.75;9.38;;;;;;;;;;4954521;29;20090;-71
2021/11/05 12:12:13;;;;;;;35.00;9.82;;;;;;;;;;4954350;29;20245;-71
2021/11/05 12:15:02;;;;;;;45.78;9.73;;;;;;;;;;4954448;29;20045;-75
2021/11/05 12:17:29;;;;;;;35.65;9.25;;;;;;;;;;4936803;29;20047;-75
2021/11/05 12:20:32;;;;;;;42.50;9.77;;;;;;;;;;4953570;28;20049;-73
2021/11/05 12:23:07;;;;;;;43.90;10.15;;;;;;;;;;4954581;29;20130;-73
2021/11/05 12:25:58;;;;;;;39.03;9.25;;;;;;;;;;4954423;29;20532;-70
2021/11/05 12:28:28;;;;;;;44.17;9.52;;;;;;;;;;4954420;29;20465;-72
2021/11/05 12:31:15;;;;;;;40.33;10.18;;;;;;;;;;4954515;29;20119;-75
2021/11/05 12:33:43;;;;;;;34.58;9.35;;;;;;;;;;4953724;28;20118;-70
2021/11/05 12:36:10;;;;;;;38.28;9.15;;;;;;;;;;4953779;29;20043;-73
2021/11/05 12:38:56;;;;;;;50.97;11.13;;;;;;;;;;4954413;29;20050;-76
2021/11/05 12:41:25;;;;;;;36.92;9.75;;;;;;;;;;4954132;29;20122;-71
2021/11/05 12:43:54;;;;;;;31.10;9.45;;;;;;;;;;4937743;29;20039;-76
2021/11/05 12:46:23;;;;;;;38.10;10.30;;;;;;;;;;4954749;29;20051;-72
2021/11/05 12:48:53;;;;;;;46.00;10.73;;;;;;;;;;4954471;29;20158;-72
2021/11/05 12:51:31;;;;;;;45.50;9.88;;;;;;;;;;4954739;29;20061;-72
2021/11/05 12:54:06;;;;;;;36.58;9.70;;;;;;;;;;4954702;29;20081;-73
2021/11/05 12:56:36;;;;;;;36.15;9.75;;;;;;;;;;4937420;29;20043;-73
2021/11/05 12:59:08;;;;;;;39.80;9.45;;;;;;;;;;4937197;29;20413;-75
2021/11/05 13:01:36;;;;;;;36.13;9.55;;;;;;;;;;4936751;29;20061;-75
2021/11/05 13:04:12;;;;;;;38.15;9.15;;;;;;;;;;4954164;29;20102;-75
2021/11/05 13:06:51;;;;;;;51.03;11.27;;;;;;;;;;4954414;29;20416;-71
2021/11/05 13:09:23;;;;;;;40.42;10.50;;;;;;;;;;4954637;29;20058;-73
2021/11/05 13:11:52;;;;;;;44.40;10.23;;;;;;;;;;4954256;29;20043;-71
2021/11/05 13:14:34;;;;;;;43.95;10.52;;;;;;;;;;4954394;29;20048;-75
2021/11/05 13:17:09;;;;;;;35.97;10.18;;;;;;;;;;4953729;29;20039;-75
2021/11/05 13:19:37;;;;;;;35.50;9.68;;;;;;;;;;4954089;29;20469;-71
2021/11/05 13:22:05;;;;;;;45.13;12.48;;;;;;;;;;4954288;29;20137;-76
2021/11/05 13:24:32;;;;;;;40.05;9.55;;;;;;;;;;4953689;29;20074;-75
2021/11/05 13:27:04;;;;;;;39.88;9.57;;;;;;;;;;4937296;29;20066;-71
2021/11/05 13:29:32;;;;;;;48.72;9.75;;;;;;;;;;4954126;29;20043;-72
2021/11/05 13:32:10;;;;;;;40.50;11.23;;;;;;;;;;4955408;28;20050;-72
2021/11/05 13:34:39;;;;;;;46.97;11.88;;;;;;;;;;4958138;28;20384;-75
2021/11/05 13:37:07;;;;;;;44.60;10.50;;;;;;;;;;4957674;29;20049;-75
2021/11/05 13:39:34;;;;;;;45.95;10.05;;;;;;;;;;4957768;29;20039;-72
2021/11/05 13:42:19;;;;;;;45.88;10.90;;;;;;;;;;4957695;29;20042;-72
2021/11/05 13:44:53;;;;;;;45.47;10.20;;;;;;;;;;4957455;29;20047;-75
2021/11/05 13:47:20;;;;;;;45.05;10.75;;;;;;;;;;4958098;29;20106;-75
2021/11/05 13:49:58;;;;;;;42.08;10.60;;;;;;;;;;4957486;29;20103;-75
2021/11/05 13:52:26;;;;;;;45.13;10.52;;;;;;;;;;4953058;29;20051;-71
2021/11/05 13:54:54;;;;;;;41.33;11.52;;;;;;;;;;4956694;29;20044;-76
2021/11/05 13:57:24;;;;;;;40.10;10.13;;;;;;;;;;4957177;29;20067;-75
2021/11/05 13:59:53;;;;;;;38.20;10.23;;;;;;;;;;4957355;29;20051;-75
2021/11/05 14:02:43;;;;;;;38.80;9.73;;;;;;;;;;4954700;29;20444;-75
2021/11/05 14:05:14;;;;;;;47.13;10.00;;;;;;;;;;4956914;29;20156;-72
2021/11/05 14:08:03;;;;;;;42.72;9.80;;;;;;;;;;4940206;29;20051;-71
2021/11/05 14:10:32;;;;;;;50.10;10.80;;;;;;;;;;4955132;29;20071;-75
2021/11/05 14:13:01;;;;;;;46.00;10.55;;;;;;;;;;4940156;29;20047;-72
2021/11/05 14:15:30;;;;;;;43.30;9.57;;;;;;;;;;4953340;29;20757;-71
2021/11/05 14:17:58;;;;;;;41.25;9.63;;;;;;;;;;4954711;29;20051;-71
2021/11/05 14:20:33;;;;;;;38.72;10.02;;;;;;;;;;4942030;29;20115;-74
2021/11/05 14:23:03;;;;;;;41.17;8.93;;;;;;;;;;4954883;29;20548;-74
2021/11/05 14:25:33;;;;;;;44.53;9.82;;;;;;;;;;4955297;29;20050;-74
2021/11/05 14:28:01;;;;;;;38.17;9.65;;;;;;;;;;4955112;29;20568;-73
2021/11/05 14:30:32;;;;;;;45.33;10.40;;;;;;;;;;4955126;29;20071;-71
2021/11/05 14:33:07;;;;;;;59.97;10.88;;;;;;;;;;4954675;29;20123;-71
2021/11/05 14:35:39;;;;;;;41.90;10.57;;;;;;;;;;4937469;29;20058;-76